createdAt,value
2022-09-28T00:02:57.907Z,7.30
2022-09-28T00:07:14.214Z,6.80
2022-09-28T00:09:40.952Z,6.30
2022-09-28T00:12:57.105Z,7.30
2022-09-28T00:14:57.888Z,7.30
2022-09-28T00:16:59.597Z,7.80
2022-09-28T00:18:26.031Z,7.40
2022-09-28T00:20:55.081Z,6.90
2022-09-28T00:23:51.997Z,7.80
2022-09-28T00:26:09.643Z,7.60
2022-09-28T00:28:41.248Z,7.50
2022-09-28T00:31:37.387Z,8.00
2022-09-28T00:35:04.716Z,8.00
2022-09-28T00:38:02.248Z,7.80
2022-09-28T00:47:01.585Z,7.60
2022-09-28T00:56:35.637Z,8.00
2022-09-28T01:00:55.178Z,8.00
2022-09-28T01:02:24.258Z,7.80
2022-09-28T01:04:42.969Z,8.50
2022-09-28T01:08:23.178Z,8.40
2022-09-28T01:13:19.969Z,8.50
2022-09-28T01:14:46.827Z,7.70
2022-09-28T01:17:06.489Z,7.90
2022-09-28T01:20:23.914Z,7.40
2022-09-28T01:24:12.341Z,8.50
2022-09-28T01:26:32.081Z,8.50
2022-09-28T01:42:38.657Z,8.10
2022-09-28T01:50:07.842Z,10.20
2022-09-28T01:53:02.287Z,10.60
2022-09-28T01:55:22.981Z,9.30
2022-09-28T02:00:10.289Z,11.20
2022-09-28T02:02:09.774Z,11.10
2022-09-28T02:07:10.699Z,10.80
2022-09-28T02:09:11.550Z,10.90
2022-09-28T02:10:58.410Z,11.40
2022-09-28T02:14:16.800Z,11.50
2022-09-28T02:20:14.992Z,13.00
2022-09-28T02:22:42.790Z,12.50
2022-09-28T02:24:13.000Z,13.60
2022-09-28T02:28:25.583Z,13.60
2022-09-28T02:32:54.054Z,13.30
2022-09-28T02:34:53.976Z,12.50
2022-09-28T02:36:23.048Z,12.20
2022-09-28T02:38:24.905Z,13.20
2022-09-28T02:42:10.757Z,14.30
2022-09-28T02:53:47.558Z,14.20
2022-09-28T02:57:44.688Z,13.50
2022-09-28T03:00:42.359Z,14.60
2022-09-28T03:02:14.268Z,13.40
2022-09-28T03:05:11.010Z,13.90
2022-09-28T03:07:29.066Z,12.30
2022-09-28T03:09:04.049Z,13.30
2022-09-28T03:11:03.886Z,13.10
2022-09-28T03:12:53.536Z,14.20
2022-09-28T03:14:53.513Z,13.50
2022-09-28T03:16:28.324Z,15.70
2022-09-28T03:17:57.488Z,16.10
2022-09-28T03:21:36.464Z,15.30
2022-09-28T03:23:23.699Z,15.00
2022-09-28T03:29:32.128Z,16.20
2022-09-28T03:32:00.542Z,17.30
2022-09-28T03:33:57.531Z,15.50
2022-09-28T03:35:48.079Z,14.70
2022-09-28T03:39:22.490Z,16.10
2022-09-28T03:40:51.423Z,17.00
2022-09-28T03:53:14.251Z,18.90
2022-09-28T03:59:50.271Z,17.30
2022-09-28T04:01:38.953Z,18.40
2022-09-28T04:05:08.457Z,19.00
2022-09-28T04:07:13.249Z,17.00
2022-09-28T04:09:44.529Z,18.60
2022-09-28T04:14:06.892Z,20.10
2022-09-28T04:15:38.746Z,19.00
2022-09-28T04:19:30.586Z,21.20
2022-09-28T04:25:39.901Z,21.50
2022-09-28T04:28:05.576Z,21.90
2022-09-28T04:30:45.006Z,21.90
2022-09-28T04:32:47.957Z,22.50
2022-09-28T04:35:08.878Z,22.90
2022-09-28T04:36:37.663Z,21.80
2022-09-28T04:38:07.335Z,23.70
2022-09-28T04:41:55.826Z,23.40
2022-09-28T04:43:46.595Z,20.10
2022-09-28T04:46:27.540Z,23.00
2022-09-28T04:48:17.035Z,22.60
2022-09-28T04:49:47.013Z,23.30
2022-09-28T04:52:08.515Z,20.70
2022-09-28T04:53:40.112Z,22.50
2022-09-28T04:56:45.814Z,19.80
2022-09-28T04:58:17.646Z,20.00
2022-09-28T05:00:40.030Z,20.10
2022-09-28T05:02:49.039Z,20.70
2022-09-28T05:09:04.569Z,19.90
2022-09-28T05:13:54.742Z,20.30
2022-09-28T05:15:47.606Z,20.80
2022-09-28T05:18:25.258Z,20.10
2022-09-28T05:20:10.492Z,18.70
2022-09-28T05:22:30.160Z,20.00
2022-09-28T05:25:05.998Z,19.00
2022-09-28T05:30:25.930Z,19.70
2022-09-28T05:36:43.353Z,18.50
2022-09-28T05:38:12.743Z,17.40
2022-09-28T05:40:12.114Z,17.50
2022-09-28T05:41:41.834Z,18.60
2022-09-28T05:44:09.993Z,19.60
2022-09-28T05:46:09.474Z,18.10
2022-09-28T05:52:20.476Z,19.50
2022-09-28T05:54:19.694Z,19.50
2022-09-28T05:55:49.900Z,20.10
2022-09-28T05:57:17.412Z,20.10
2022-09-28T06:00:17.959Z,21.40
2022-09-28T06:02:15.845Z,19.40
2022-09-28T06:04:36.463Z,20.00
2022-09-28T06:07:59.855Z,20.80
2022-09-28T06:10:00.252Z,20.30
2022-09-28T06:13:38.899Z,19.50
2022-09-28T06:16:41.727Z,19.80
2022-09-28T06:18:08.548Z,19.50
2022-09-28T06:21:32.879Z,21.50
2022-09-28T06:24:51.116Z,19.60
2022-09-28T06:30:31.020Z,19.20
2022-09-28T06:32:04.206Z,19.30
2022-09-28T06:34:32.495Z,18.60
2022-09-28T06:36:00.429Z,17.70
2022-09-28T06:39:19.280Z,18.40
2022-09-28T06:42:44.155Z,16.20
2022-09-28T06:44:14.080Z,17.30
2022-09-28T06:46:16.833Z,16.40
2022-09-28T06:51:23.928Z,16.50
2022-09-28T06:53:42.884Z,17.10
2022-09-28T06:56:31.984Z,17.20
2022-09-28T06:57:35.732Z,16.60
2022-09-28T07:04:12.355Z,17.60
2022-09-28T07:09:31.351Z,17.20
2022-09-28T07:12:20.205Z,18.20
2022-09-28T07:14:49.362Z,17.10
2022-09-28T07:16:21.555Z,16.80
2022-09-28T07:18:00.283Z,16.20
2022-09-28T07:20:54.293Z,17.50
2022-09-28T07:22:50.375Z,16.60
2022-09-28T07:24:48.182Z,15.50
2022-09-28T07:27:17.076Z,16.90
2022-09-28T07:29:16.472Z,16.00
2022-09-28T07:31:18.260Z,17.00
2022-09-28T07:32:46.058Z,19.70
2022-09-28T07:37:13.532Z,15.60
2022-09-28T07:39:13.255Z,16.30
2022-09-28T07:44:26.626Z,19.90
2022-09-28T07:49:44.607Z,17.30
2022-09-28T07:51:14.578Z,17.60
2022-09-28T07:53:04.435Z,18.70
2022-09-28T07:59:45.401Z,21.30
2022-09-28T08:03:14.434Z,19.10
2022-09-28T08:04:40.617Z,20.20
2022-09-28T08:06:11.427Z,21.30
2022-09-28T08:08:07.291Z,20.10
2022-09-28T08:09:36.328Z,18.90
2022-09-28T08:12:33.971Z,19.40
2022-09-28T08:14:33.707Z,16.80
2022-09-28T08:17:03.362Z,15.10
2022-09-28T08:19:03.158Z,13.90
2022-09-28T08:24:19.765Z,16.60
2022-09-28T08:26:50.744Z,15.30
2022-09-28T08:41:16.468Z,17.70
2022-09-28T08:54:55.009Z,13.60
2022-09-28T09:01:42.910Z,13.70
2022-09-28T09:03:12.084Z,16.00
2022-09-28T09:05:02.704Z,14.90
2022-09-28T09:07:38.354Z,13.90
2022-09-28T09:10:27.699Z,13.40
2022-09-28T09:11:57.640Z,13.00
2022-09-28T09:13:27.837Z,13.10
2022-09-28T09:14:59.418Z,13.20
2022-09-28T09:17:00.456Z,13.90
2022-09-28T09:21:12.728Z,12.20
2022-09-28T09:24:38.501Z,13.10
2022-09-28T09:28:48.832Z,11.70
2022-09-28T09:30:37.527Z,11.10
2022-09-28T09:32:34.525Z,11.70
2022-09-28T09:37:35.460Z,7.80
2022-09-28T09:42:43.397Z,7.10
2022-09-28T09:44:14.790Z,7.80
2022-09-28T09:47:04.200Z,7.50
2022-09-28T09:48:33.906Z,8.40
2022-09-28T09:50:06.864Z,7.40
2022-09-28T09:52:21.409Z,6.70
2022-09-28T09:54:51.953Z,6.60
2022-09-28T09:59:41.888Z,7.20
2022-09-28T10:01:39.929Z,7.70
2022-09-28T10:04:08.150Z,7.00
2022-09-28T10:11:11.258Z,6.20
2022-09-28T10:12:41.376Z,6.40
2022-09-28T10:14:32.592Z,6.40
2022-09-28T10:16:00.585Z,6.30
2022-09-28T10:18:19.483Z,7.70
2022-09-28T10:21:49.198Z,6.70
2022-09-28T10:23:50.850Z,7.30
2022-09-28T10:28:14.690Z,6.50
2022-09-28T10:32:19.445Z,6.80
2022-09-28T10:35:21.426Z,5.80
2022-09-28T10:36:50.445Z,6.40
2022-09-28T10:38:50.420Z,6.90
2022-09-28T10:41:56.268Z,5.20
2022-09-28T10:46:13.181Z,5.30
2022-09-28T10:47:44.813Z,4.60
2022-09-28T10:49:11.894Z,4.70
2022-09-28T10:50:45.953Z,4.80
2022-09-28T10:52:14.855Z,4.80
2022-09-28T10:54:42.830Z,4.50
2022-09-28T10:56:15.901Z,4.80
2022-09-28T10:58:43.692Z,4.70
2022-09-28T11:00:13.597Z,5.10
2022-09-28T11:02:42.812Z,6.50
2022-09-28T11:05:09.658Z,5.40
2022-09-28T11:06:38.550Z,4.90
2022-09-28T11:09:35.485Z,4.70
2022-09-28T11:12:32.256Z,3.80
2022-09-28T11:15:30.399Z,3.20
2022-09-28T11:17:00.493Z,3.30
2022-09-28T11:18:30.289Z,3.10
2022-09-28T11:21:16.894Z,2.90
2022-09-28T11:23:35.506Z,2.50
2022-09-28T11:25:33.427Z,3.20
2022-09-28T11:27:32.392Z,2.70
2022-09-28T11:31:22.636Z,2.50
2022-09-28T11:35:08.710Z,1.90
2022-09-28T11:36:38.621Z,2.10
2022-09-28T11:38:27.370Z,2.00
2022-09-28T11:40:54.319Z,2.00
2022-09-28T11:45:49.672Z,1.50
2022-09-28T11:48:07.257Z,1.60
2022-09-28T11:52:29.867Z,1.20
2022-09-28T11:53:59.830Z,1.50
2022-09-28T11:55:29.873Z,1.60
2022-09-28T12:03:13.136Z,2.10
2022-09-28T12:05:18.357Z,2.00
2022-09-28T12:09:41.654Z,2.10
2022-09-28T12:18:41.614Z,1.80
2022-09-28T12:26:05.581Z,1.30
2022-09-28T12:27:34.470Z,1.30
2022-09-28T12:29:04.420Z,1.60
2022-09-28T12:35:39.896Z,1.20
2022-09-28T12:37:59.488Z,1.10
2022-09-28T12:40:27.521Z,1.10
2022-09-28T12:42:26.892Z,0.70
2022-09-28T12:44:45.293Z,1.10
2022-09-28T12:46:15.211Z,1.20
2022-09-28T12:52:02.586Z,1.00
2022-09-28T12:54:50.101Z,1.20
2022-09-28T12:56:49.009Z,1.00
2022-09-28T12:58:19.342Z,1.10
2022-09-28T13:00:16.745Z,1.30
2022-09-28T13:06:01.472Z,1.10
2022-09-28T13:11:50.511Z,1.00
2022-09-28T13:14:55.391Z,1.10
2022-09-28T13:17:14.980Z,1.30
2022-09-28T13:18:43.880Z,0.90
2022-09-28T13:20:33.615Z,0.80
2022-09-28T13:22:34.301Z,0.70
2022-09-28T13:28:11.775Z,0.60
2022-09-28T13:31:30.777Z,0.80
2022-09-28T13:34:17.672Z,0.70
2022-09-28T13:36:35.398Z,0.60
2022-09-28T13:38:04.518Z,0.70
2022-09-28T13:40:08.267Z,0.80
2022-09-28T13:43:27.951Z,0.70
2022-09-28T13:46:59.403Z,0.60
2022-09-28T13:50:36.008Z,0.80
2022-09-28T13:53:54.134Z,0.50
2022-09-28T13:59:06.205Z,0.70
2022-09-28T14:00:34.739Z,0.80
2022-09-28T14:02:07.327Z,0.60
2022-09-28T14:05:18.577Z,0.70
2022-09-28T14:10:27.154Z,1.00
2022-09-28T14:12:26.139Z,0.80
2022-09-28T14:15:50.713Z,0.70
2022-09-28T14:22:26.923Z,1.70
2022-09-28T14:28:31.945Z,0.50
2022-09-28T14:34:40.886Z,0.60
2022-09-28T14:36:14.166Z,0.70
2022-09-28T14:41:01.682Z,0.70
2022-09-28T14:43:20.058Z,0.70
2022-09-28T14:45:17.369Z,0.60
2022-09-28T14:47:16.246Z,0.40
2022-09-28T14:48:46.099Z,0.30
2022-09-28T14:50:48.838Z,0.30
2022-09-28T14:54:36.977Z,3.70
2022-09-28T14:56:45.856Z,1.80
2022-09-28T14:59:12.535Z,2.30
2022-09-28T15:01:39.233Z,1.40
2022-09-28T15:05:02.349Z,1.10
2022-09-28T15:06:30.997Z,0.80
2022-09-28T15:08:50.473Z,2.50
2022-09-28T15:10:54.356Z,0.70
2022-09-28T15:13:44.105Z,0.40
2022-09-28T15:17:37.018Z,0.50
2022-09-28T15:19:32.729Z,0.30
2022-09-28T15:21:03.586Z,0.30
2022-09-28T15:23:30.788Z,0.60
2022-09-28T15:26:19.610Z,0.50
2022-09-28T15:29:17.862Z,0.60
2022-09-28T15:35:55.987Z,0.40
2022-09-28T15:37:24.041Z,0.60
2022-09-28T15:40:52.602Z,0.70
2022-09-28T15:42:55.866Z,0.80
2022-09-28T15:44:20.472Z,0.60
2022-09-28T15:45:50.386Z,0.60
2022-09-28T15:47:51.180Z,0.60
2022-09-28T15:49:19.579Z,0.60
2022-09-28T15:54:29.408Z,0.60
2022-09-28T15:55:56.767Z,0.50
2022-09-28T15:59:14.680Z,0.60
2022-09-28T16:01:44.905Z,0.40
2022-09-28T16:03:16.671Z,0.50
2022-09-28T16:10:30.671Z,0.70
2022-09-28T16:14:15.659Z,1.30
2022-09-28T16:17:03.310Z,1.50
2022-09-28T16:20:19.830Z,1.20
2022-09-28T16:26:27.851Z,1.10
2022-09-28T16:28:43.819Z,1.50
2022-09-28T16:31:41.271Z,1.10
2022-09-28T16:33:11.145Z,1.00
2022-09-28T16:36:35.855Z,1.10
2022-09-28T16:40:26.861Z,1.10
2022-09-28T16:47:53.089Z,1.40
2022-09-28T16:50:27.570Z,1.60
2022-09-28T16:52:26.525Z,1.70
2022-09-28T16:54:13.531Z,2.10
2022-09-28T16:56:02.630Z,1.90
2022-09-28T16:57:36.276Z,2.10
2022-09-28T17:01:05.469Z,1.90
2022-09-28T17:04:36.067Z,2.10
2022-09-28T17:07:56.382Z,2.30
2022-09-28T17:09:24.231Z,2.30
2022-09-28T17:12:20.613Z,2.20
2022-09-28T17:14:19.381Z,2.30
2022-09-28T17:20:43.367Z,3.20
2022-09-28T17:22:42.538Z,3.10
2022-09-28T17:25:59.246Z,4.80
2022-09-28T17:28:48.939Z,4.80
2022-09-28T17:32:38.835Z,8.10
2022-09-28T17:35:46.980Z,6.00
2022-09-28T17:38:35.700Z,6.50
2022-09-28T17:40:07.544Z,4.10
2022-09-28T17:45:55.212Z,2.70
2022-09-28T17:49:10.155Z,1.90
2022-09-28T17:50:42.171Z,1.50
2022-09-28T17:55:03.913Z,2.00
2022-09-28T17:57:22.583Z,3.00
2022-09-28T18:01:14.976Z,2.70
2022-09-28T18:04:33.312Z,3.00
2022-09-28T18:06:44.205Z,2.50
2022-09-28T18:09:22.213Z,1.50
2022-09-28T18:13:18.954Z,1.30
2022-09-28T18:18:14.522Z,1.10
2022-09-28T18:24:46.821Z,1.00
2022-09-28T18:27:27.239Z,0.70
2022-09-28T18:30:17.856Z,1.00
2022-09-28T18:33:07.571Z,0.80
2022-09-28T18:34:39.007Z,0.70
2022-09-28T18:36:44.347Z,1.10
2022-09-28T18:44:55.713Z,6.50
2022-09-28T18:51:49.369Z,2.30
2022-09-28T18:53:52.028Z,2.20
2022-09-28T18:55:38.022Z,2.50
2022-09-28T18:57:35.879Z,2.40
2022-09-28T18:59:25.642Z,1.70
2022-09-28T19:01:49.855Z,1.80
2022-09-28T19:04:10.393Z,2.00
2022-09-28T19:06:10.288Z,1.90
2022-09-28T19:07:40.645Z,2.80
2022-09-28T19:11:11.090Z,2.90
2022-09-28T19:12:41.078Z,3.00
2022-09-28T19:26:30.524Z,2.60
2022-09-28T19:32:54.247Z,4.80
2022-09-28T19:34:24.385Z,7.50
2022-09-28T19:38:40.574Z,9.30
2022-09-28T19:46:16.900Z,6.90
2022-09-28T19:49:43.642Z,3.60
2022-09-28T19:51:13.144Z,3.50
2022-09-28T19:54:36.566Z,6.30
2022-09-28T19:56:40.115Z,5.90
2022-09-28T19:58:09.094Z,5.70
2022-09-28T20:00:08.680Z,4.70
2022-09-28T20:02:39.071Z,3.70
2022-09-28T20:08:20.131Z,3.70
2022-09-28T20:13:09.092Z,3.90
2022-09-28T20:15:13.189Z,4.10
2022-09-28T20:16:41.229Z,4.00
2022-09-28T20:19:58.110Z,3.70
2022-09-28T20:22:16.784Z,4.10
2022-09-28T20:24:17.752Z,4.00
2022-09-28T20:27:26.561Z,4.60
2022-09-28T20:29:26.010Z,4.00
2022-09-28T20:30:57.831Z,4.30
2022-09-28T20:34:38.014Z,4.70
2022-09-28T20:37:21.378Z,4.40
2022-09-28T20:39:45.728Z,4.00
2022-09-28T20:41:54.569Z,4.40
2022-09-28T20:44:11.939Z,4.20
2022-09-28T20:47:33.352Z,4.40
2022-09-28T20:50:28.215Z,5.20
2022-09-28T20:51:57.148Z,4.20
2022-09-28T20:53:46.664Z,4.90
2022-09-28T20:56:34.820Z,4.90
2022-09-28T21:00:12.161Z,5.70
2022-09-28T21:01:41.092Z,7.00
2022-09-28T21:03:43.141Z,10.50
2022-09-28T21:05:14.060Z,9.30
2022-09-28T21:11:35.878Z,6.70
2022-09-28T21:18:12.442Z,6.80
2022-09-28T21:19:42.355Z,7.00
2022-09-28T21:26:45.033Z,8.80
2022-09-28T21:32:19.580Z,8.00
2022-09-28T21:33:49.553Z,8.10
2022-09-28T21:35:39.082Z,8.30
2022-09-28T21:38:24.716Z,8.50
2022-09-28T21:40:54.442Z,8.30
2022-09-28T21:47:47.646Z,8.30
2022-09-28T21:53:12.257Z,8.30
2022-09-28T21:55:10.283Z,8.30
2022-09-28T21:58:55.091Z,7.40
2022-09-28T22:03:49.662Z,7.70
2022-09-28T22:06:46.675Z,9.10
2022-09-28T22:08:47.422Z,8.90
2022-09-28T22:10:16.364Z,9.80
2022-09-28T22:11:46.259Z,8.60
2022-09-28T22:17:47.960Z,9.60
2022-09-28T22:19:37.678Z,8.90
2022-09-28T22:22:05.634Z,9.50
2022-09-28T22:24:01.798Z,8.70
2022-09-28T22:26:00.585Z,9.00
2022-09-28T22:27:59.381Z,9.50
2022-09-28T22:35:51.741Z,9.70
2022-09-28T22:37:18.842Z,9.70
2022-09-28T22:40:17.501Z,10.10
2022-09-28T22:41:46.379Z,9.40
2022-09-28T22:44:15.101Z,9.60
2022-09-28T22:46:17.091Z,10.00
2022-09-28T22:50:25.892Z,11.20
2022-09-28T22:54:22.818Z,10.50
2022-09-28T22:58:20.651Z,9.70
2022-09-28T23:01:17.538Z,10.60
2022-09-28T23:05:42.033Z,10.60
2022-09-28T23:07:10.913Z,10.60
2022-09-28T23:12:03.683Z,11.30
2022-09-28T23:13:34.477Z,11.60
2022-09-28T23:15:01.526Z,12.50
2022-09-28T23:18:00.218Z,11.80
2022-09-28T23:19:29.352Z,11.30
2022-09-28T23:21:29.368Z,11.50
2022-09-28T23:23:18.077Z,12.90
2022-09-28T23:26:37.007Z,12.40
2022-09-28T23:28:05.718Z,12.80
2022-09-28T23:29:35.866Z,12.30
2022-09-28T23:32:05.222Z,12.10
2022-09-28T23:38:08.851Z,13.70
2022-09-28T23:42:56.534Z,13.70
2022-09-28T23:47:41.370Z,13.60
2022-09-28T23:50:00.942Z,14.90
2022-09-28T23:52:31.108Z,14.50
2022-09-28T23:54:30.704Z,14.10
2022-09-28T23:55:57.650Z,15.20
